createdAt,value
2023-05-06T00:00:39.400Z,11.70
2023-05-06T00:01:39.374Z,11.75
2023-05-06T00:02:39.365Z,11.76
2023-05-06T00:03:39.436Z,11.78
2023-05-06T00:04:39.311Z,11.78
2023-05-06T00:05:39.260Z,11.80
2023-05-06T00:06:39.232Z,11.88
2023-05-06T00:07:39.247Z,11.95
2023-05-06T00:08:39.187Z,11.86
2023-05-06T00:09:39.170Z,11.90
2023-05-06T00:10:39.143Z,11.94
2023-05-06T00:11:39.120Z,11.94
2023-05-06T00:12:39.121Z,11.96
2023-05-06T00:13:39.075Z,11.88
2023-05-06T00:14:39.044Z,11.90
2023-05-06T00:15:39.040Z,11.86
2023-05-06T00:16:39.157Z,11.80
2023-05-06T00:17:38.999Z,11.76
2023-05-06T00:18:38.955Z,11.69
2023-05-06T00:19:38.926Z,11.75
2023-05-06T00:20:38.904Z,11.73
2023-05-06T00:21:38.897Z,11.72
2023-05-06T00:22:38.861Z,11.69
2023-05-06T00:23:38.848Z,11.76
2023-05-06T00:24:38.811Z,11.80
2023-05-06T00:25:38.790Z,11.78
2023-05-06T00:26:38.776Z,11.94
2023-05-06T00:27:38.740Z,11.94
2023-05-06T00:28:38.729Z,12.01
2023-05-06T00:29:38.695Z,11.96
2023-05-06T00:30:38.676Z,11.96
2023-05-06T00:31:38.672Z,11.88
2023-05-06T00:32:38.762Z,11.78
2023-05-06T00:33:38.609Z,11.75
2023-05-06T00:34:38.580Z,11.69
2023-05-06T00:35:38.559Z,11.57
2023-05-06T00:36:38.537Z,11.58
2023-05-06T00:37:38.542Z,11.57
2023-05-06T00:38:38.500Z,11.54
2023-05-06T00:39:38.481Z,11.43
2023-05-06T00:40:38.435Z,11.46
2023-05-06T00:41:38.419Z,11.51
2023-05-06T00:42:38.405Z,11.47
2023-05-06T00:43:38.435Z,11.47
2023-05-06T00:44:38.352Z,11.58
2023-05-06T00:45:38.349Z,11.54
2023-05-06T00:46:38.308Z,11.57
2023-05-06T00:47:38.301Z,11.61
2023-05-06T00:48:38.352Z,11.61
2023-05-06T00:49:38.228Z,11.57
2023-05-06T00:50:38.212Z,11.62
2023-05-06T00:51:38.184Z,11.60
2023-05-06T00:52:38.165Z,11.67
2023-05-06T00:53:38.130Z,11.64
2023-05-06T00:54:38.112Z,11.58
2023-05-06T00:55:38.112Z,11.58
2023-05-06T00:56:38.069Z,11.60
2023-05-06T00:57:38.043Z,11.58
2023-05-06T00:58:38.025Z,11.55
2023-05-06T00:59:38.000Z,11.61
2023-05-06T01:00:37.972Z,11.69
2023-05-06T01:01:37.995Z,11.67
2023-05-06T01:02:46.269Z,11.72
2023-05-06T01:03:38.087Z,11.65
2023-05-06T01:04:38.003Z,11.73
2023-05-06T01:05:37.860Z,11.69
2023-05-06T01:06:37.855Z,11.69
2023-05-06T01:07:37.814Z,11.75
2023-05-06T01:08:37.786Z,11.72
2023-05-06T01:09:37.770Z,11.76
2023-05-06T01:10:37.739Z,11.75
2023-05-06T01:11:37.737Z,11.73
2023-05-06T01:12:37.725Z,11.72
2023-05-06T01:13:37.673Z,11.58
2023-05-06T01:14:37.656Z,11.62
2023-05-06T01:15:37.636Z,11.58
2023-05-06T01:16:37.687Z,11.47
2023-05-06T01:17:37.585Z,11.46
2023-05-06T01:18:37.550Z,11.44
2023-05-06T01:19:37.530Z,11.37
2023-05-06T01:20:37.526Z,11.44
2023-05-06T01:21:37.495Z,11.44
2023-05-06T01:22:37.457Z,11.47
2023-05-06T01:23:37.437Z,11.35
2023-05-06T01:24:37.411Z,11.44
2023-05-06T01:25:37.392Z,11.39
2023-05-06T01:27:35.021Z,11.44
2023-05-06T01:28:34.989Z,11.46
2023-05-06T01:29:34.976Z,11.43
2023-05-06T01:30:34.949Z,11.44
2023-05-06T01:31:35.009Z,11.49
2023-05-06T01:32:34.911Z,11.44
2023-05-06T01:33:34.884Z,11.43
2023-05-06T01:34:34.851Z,11.33
2023-05-06T01:35:34.830Z,11.43
2023-05-06T01:36:34.964Z,11.37
2023-05-06T01:37:34.781Z,11.44
2023-05-06T01:38:34.755Z,11.44
2023-05-06T01:39:34.741Z,11.39
2023-05-06T01:40:34.707Z,11.44
2023-05-06T01:41:34.685Z,11.44
2023-05-06T01:42:34.660Z,11.42
2023-05-06T01:43:34.638Z,11.37
2023-05-06T01:44:34.625Z,11.46
2023-05-06T01:45:34.596Z,11.42
2023-05-06T01:46:34.622Z,11.46
2023-05-06T01:47:34.558Z,11.43
2023-05-06T01:48:34.528Z,11.40
2023-05-06T01:49:34.505Z,11.39
2023-05-06T01:50:34.471Z,11.40
2023-05-06T01:51:34.449Z,11.43
2023-05-06T01:52:34.542Z,11.29
2023-05-06T01:53:34.405Z,11.21
2023-05-06T01:54:34.376Z,11.14
2023-05-06T01:55:34.363Z,11.06
2023-05-06T01:56:34.326Z,10.97
2023-05-06T01:57:34.316Z,11.03
2023-05-06T01:58:34.280Z,11.07
2023-05-06T01:59:34.262Z,11.09
2023-05-06T02:00:34.236Z,11.14
2023-05-06T02:01:34.246Z,11.17
2023-05-06T02:02:34.363Z,11.24
2023-05-06T02:03:34.257Z,11.21
2023-05-06T02:04:34.147Z,11.18
2023-05-06T02:05:34.121Z,11.21
2023-05-06T02:06:34.102Z,11.17
2023-05-06T02:07:34.076Z,11.21
2023-05-06T02:08:34.079Z,11.27
2023-05-06T02:09:34.026Z,11.29
2023-05-06T02:10:34.015Z,11.27
2023-05-06T02:11:33.982Z,11.39
2023-05-06T02:12:34.005Z,11.35
2023-05-06T02:13:33.933Z,11.32
2023-05-06T02:14:33.910Z,11.28
2023-05-06T02:15:33.889Z,11.36
2023-05-06T02:16:33.917Z,11.27
2023-05-06T02:17:33.884Z,11.21
2023-05-06T02:18:33.818Z,11.15
2023-05-06T02:19:33.789Z,11.14
2023-05-06T02:20:33.766Z,11.10
2023-05-06T02:21:33.738Z,11.09
2023-05-06T02:22:33.713Z,11.10
2023-05-06T02:23:33.700Z,11.10
2023-05-06T02:24:33.764Z,11.09
2023-05-06T02:25:33.663Z,11.04
2023-05-06T02:26:33.622Z,11.06
2023-05-06T02:27:33.603Z,11.11
2023-05-06T02:28:33.572Z,10.94
2023-05-06T02:29:33.554Z,11.06
2023-05-06T02:30:33.524Z,11.11
2023-05-06T02:31:33.542Z,11.06
2023-05-06T02:32:33.500Z,11.10
2023-05-06T02:33:33.466Z,11.11
2023-05-06T02:34:33.462Z,11.11
2023-05-06T02:35:33.407Z,11.14
2023-05-06T02:36:33.421Z,11.10
2023-05-06T02:37:33.366Z,11.15
2023-05-06T02:38:33.399Z,11.15
2023-05-06T02:39:33.316Z,11.21
2023-05-06T02:40:33.434Z,11.21
2023-05-06T02:41:33.281Z,11.19
2023-05-06T02:42:33.300Z,11.21
2023-05-06T02:43:33.223Z,11.15
2023-05-06T02:44:33.214Z,11.15
2023-05-06T02:45:33.183Z,11.10
2023-05-06T02:46:33.147Z,11.11
2023-05-06T02:47:33.138Z,11.14
2023-05-06T02:48:33.095Z,11.11
2023-05-06T02:49:33.087Z,11.10
2023-05-06T02:50:33.053Z,11.11
2023-05-06T02:51:33.045Z,10.92
2023-05-06T02:52:33.001Z,11.06
2023-05-06T02:53:32.991Z,11.11
2023-05-06T02:54:32.973Z,11.07
2023-05-06T02:55:32.939Z,11.06
2023-05-06T02:56:33.006Z,11.10
2023-05-06T02:57:32.884Z,11.06
2023-05-06T02:58:32.888Z,11.07
2023-05-06T02:59:32.837Z,11.14
2023-05-06T03:00:32.818Z,11.11
2023-05-06T03:01:32.811Z,11.19
2023-05-06T03:02:32.791Z,11.19
2023-05-06T03:03:32.752Z,11.22
2023-05-06T03:04:32.816Z,11.32
2023-05-06T03:05:32.699Z,11.35
2023-05-06T03:06:32.669Z,11.33
2023-05-06T03:07:32.660Z,11.42
2023-05-06T03:08:32.619Z,11.39
2023-05-06T03:09:32.607Z,11.36
2023-05-06T03:10:32.584Z,11.37
2023-05-06T03:11:32.556Z,11.43
2023-05-06T03:12:32.760Z,11.44
2023-05-06T03:13:32.510Z,11.42
2023-05-06T03:14:32.481Z,11.47
2023-05-06T03:15:32.475Z,11.44
2023-05-06T03:16:32.502Z,11.47
2023-05-06T03:17:32.425Z,11.51
2023-05-06T03:18:32.386Z,11.47
2023-05-06T03:19:32.369Z,11.49
2023-05-06T03:20:32.349Z,11.52
2023-05-06T03:21:32.449Z,11.52
2023-05-06T03:22:32.294Z,11.58
2023-05-06T03:23:32.274Z,11.54
2023-05-06T03:24:32.242Z,11.51
2023-05-06T03:25:32.226Z,11.54
2023-05-06T03:26:32.199Z,11.51
2023-05-06T03:27:32.192Z,11.57
2023-05-06T03:28:32.433Z,11.58
2023-05-06T03:29:32.127Z,11.55
2023-05-06T03:30:32.105Z,11.51
2023-05-06T03:31:32.156Z,11.52
2023-05-06T03:32:32.079Z,11.51
2023-05-06T03:33:32.036Z,11.46
2023-05-06T03:34:32.007Z,11.47
2023-05-06T03:35:31.983Z,11.49
2023-05-06T03:36:31.965Z,11.39
2023-05-06T03:37:31.940Z,11.43
2023-05-06T03:38:31.915Z,11.46
2023-05-06T03:39:31.891Z,11.43
2023-05-06T03:40:31.865Z,11.43
2023-05-06T03:41:31.846Z,11.40
2023-05-06T03:42:31.814Z,11.35
2023-05-06T03:43:31.802Z,11.33
2023-05-06T03:44:31.803Z,11.32
2023-05-06T03:45:31.752Z,11.28
2023-05-06T03:46:31.803Z,11.14
2023-05-06T03:47:31.722Z,11.24
2023-05-06T03:48:31.733Z,11.06
2023-05-06T03:49:31.661Z,10.91
2023-05-06T03:50:31.632Z,10.78
2023-05-06T03:51:31.612Z,10.76
2023-05-06T03:52:31.582Z,10.79
2023-05-06T03:53:31.561Z,10.78
2023-05-06T03:54:31.534Z,10.81
2023-05-06T03:55:31.515Z,10.70
2023-05-06T03:56:31.498Z,10.63
2023-05-06T03:57:31.466Z,10.68
2023-05-06T03:58:31.450Z,10.59
2023-05-06T03:59:31.428Z,10.60
2023-05-06T04:00:31.485Z,10.67
2023-05-06T04:01:31.373Z,10.68
2023-05-06T04:02:31.453Z,10.76
2023-05-06T04:03:31.381Z,10.81
2023-05-06T04:04:31.296Z,10.78
2023-05-06T04:05:31.300Z,10.79
2023-05-06T04:06:31.254Z,10.91
2023-05-06T04:07:31.260Z,10.97
2023-05-06T04:08:31.203Z,11.04
2023-05-06T04:09:31.181Z,11.11
2023-05-06T04:10:31.156Z,11.10
2023-05-06T04:11:31.144Z,11.10
2023-05-06T04:12:31.125Z,11.17
2023-05-06T04:13:31.086Z,11.24
2023-05-06T04:14:31.062Z,11.17
2023-05-06T04:15:31.040Z,11.19
2023-05-06T04:16:31.114Z,11.17
2023-05-06T04:17:31.026Z,11.22
2023-05-06T04:18:30.966Z,11.18
2023-05-06T04:19:30.941Z,11.15
2023-05-06T04:20:30.920Z,11.29
2023-05-06T04:21:30.901Z,11.25
2023-05-06T04:22:30.873Z,11.29
2023-05-06T04:23:30.849Z,11.27
2023-05-06T04:24:30.823Z,11.37
2023-05-06T04:25:30.801Z,11.35
2023-05-06T04:26:30.772Z,11.33
2023-05-06T04:27:30.754Z,11.37
2023-05-06T04:28:30.728Z,11.40
2023-05-06T04:29:30.712Z,11.35
2023-05-06T04:30:30.686Z,11.32
2023-05-06T04:31:30.691Z,11.33
2023-05-06T04:32:30.828Z,11.33
2023-05-06T04:33:30.614Z,11.35
2023-05-06T04:34:30.591Z,11.33
2023-05-06T04:35:30.568Z,11.29
2023-05-06T04:36:30.545Z,11.36
2023-05-06T04:37:30.518Z,11.36
2023-05-06T04:38:30.500Z,11.32
2023-05-06T04:39:30.467Z,11.36
2023-05-06T04:40:30.453Z,11.32
2023-05-06T04:41:30.422Z,11.40
2023-05-06T04:42:30.405Z,11.37
2023-05-06T04:43:30.380Z,11.32
2023-05-06T04:44:30.354Z,11.32
2023-05-06T04:45:30.379Z,11.37
2023-05-06T04:46:30.310Z,11.39
2023-05-06T04:47:30.311Z,11.32
2023-05-06T04:48:30.353Z,11.33
2023-05-06T04:49:30.237Z,11.37
2023-05-06T04:50:30.215Z,11.33
2023-05-06T04:51:30.196Z,11.29
2023-05-06T04:52:30.170Z,11.18
2023-05-06T04:53:30.142Z,11.17
2023-05-06T04:54:30.121Z,11.14
2023-05-06T04:55:30.109Z,11.27
2023-05-06T04:56:30.071Z,11.33
2023-05-06T04:57:30.051Z,11.36
2023-05-06T04:58:30.025Z,11.37
2023-05-06T04:59:30.003Z,11.33
2023-05-06T05:00:29.974Z,11.47
2023-05-06T05:01:30.020Z,11.42
2023-05-06T05:02:30.002Z,11.42
2023-05-06T05:03:29.943Z,11.37
2023-05-06T05:04:30.042Z,11.36
2023-05-06T05:05:29.861Z,11.40
2023-05-06T05:06:29.837Z,11.46
2023-05-06T05:07:29.842Z,11.44
2023-05-06T05:08:29.790Z,11.43
2023-05-06T05:09:29.793Z,11.46
2023-05-06T05:10:29.749Z,11.44
2023-05-06T05:11:29.738Z,11.37
2023-05-06T05:12:29.694Z,11.42
2023-05-06T05:13:29.676Z,11.49
2023-05-06T05:14:29.665Z,11.55
2023-05-06T05:15:29.644Z,11.54
2023-05-06T05:16:29.651Z,11.55
2023-05-06T05:17:29.603Z,11.51
2023-05-06T05:18:29.565Z,11.55
2023-05-06T05:19:29.533Z,11.58
2023-05-06T05:20:29.646Z,11.62
2023-05-06T05:21:29.483Z,11.55
2023-05-06T05:22:29.459Z,11.65
2023-05-06T05:23:29.439Z,11.75
2023-05-06T05:24:29.409Z,11.73
2023-05-06T05:25:29.394Z,11.73
2023-05-06T05:26:29.361Z,11.70
2023-05-06T05:27:29.346Z,11.75
2023-05-06T05:28:29.321Z,11.55
2023-05-06T05:29:29.300Z,11.62
2023-05-06T05:30:29.278Z,11.57
2023-05-06T05:31:29.313Z,11.60
2023-05-06T05:32:29.345Z,11.60
2023-05-06T05:33:29.255Z,11.60
2023-05-06T05:34:29.182Z,11.61
2023-05-06T05:35:29.168Z,11.60
2023-05-06T05:36:29.247Z,11.62
2023-05-06T05:37:29.139Z,11.62
2023-05-06T05:38:29.086Z,11.67
2023-05-06T05:39:29.067Z,11.67
2023-05-06T05:40:29.040Z,11.67
2023-05-06T05:41:29.023Z,11.72
2023-05-06T05:42:29.002Z,11.70
2023-05-06T05:43:28.984Z,11.67
2023-05-06T05:44:28.942Z,11.72
2023-05-06T05:45:28.927Z,11.78
2023-05-06T05:46:28.907Z,11.79
2023-05-06T05:47:28.890Z,11.83
2023-05-06T05:48:28.859Z,11.94
2023-05-06T05:49:28.823Z,11.90
2023-05-06T05:50:28.806Z,11.96
2023-05-06T05:51:28.779Z,11.88
2023-05-06T05:52:28.799Z,11.86
2023-05-06T05:53:28.730Z,11.85
2023-05-06T05:54:28.708Z,11.91
2023-05-06T05:55:28.681Z,11.94
2023-05-06T05:56:28.676Z,11.86
2023-05-06T05:57:28.653Z,11.96
2023-05-06T05:58:28.621Z,11.98
2023-05-06T05:59:28.592Z,11.95
2023-05-06T06:00:28.569Z,11.85
2023-05-06T06:01:28.560Z,11.91
2023-05-06T06:02:28.610Z,11.95
2023-05-06T06:03:28.627Z,11.96
2023-05-06T06:04:28.523Z,12.04
2023-05-06T06:05:28.449Z,12.07
2023-05-06T06:06:28.423Z,12.05
2023-05-06T06:07:28.420Z,12.10
2023-05-06T06:08:28.414Z,12.13
2023-05-06T06:09:28.363Z,12.09
2023-05-06T06:10:28.344Z,12.14
2023-05-06T06:11:28.321Z,12.05
2023-05-06T06:12:28.334Z,12.10
2023-05-06T06:13:28.981Z,12.13
2023-05-06T06:14:28.238Z,12.12
2023-05-06T06:15:28.216Z,12.14
2023-05-06T06:16:28.218Z,12.17
2023-05-06T06:17:28.212Z,12.27
2023-05-06T06:18:28.149Z,12.24
2023-05-06T06:19:28.142Z,12.31
2023-05-06T06:20:28.134Z,12.31
2023-05-06T06:21:28.070Z,12.39
2023-05-06T06:22:28.046Z,12.38
2023-05-06T06:23:28.027Z,12.45
2023-05-06T06:24:28.025Z,12.35
2023-05-06T06:25:27.979Z,12.39
2023-05-06T06:26:27.956Z,12.34
2023-05-06T06:27:27.944Z,12.52
2023-05-06T06:28:27.924Z,12.50
2023-05-06T06:29:27.896Z,12.52
2023-05-06T06:30:27.869Z,12.50
2023-05-06T06:31:27.916Z,12.50
2023-05-06T06:32:27.856Z,12.54
2023-05-06T06:33:27.801Z,12.56
2023-05-06T06:34:27.769Z,12.54
2023-05-06T06:35:27.747Z,12.56
2023-05-06T06:36:27.729Z,12.60
2023-05-06T06:37:27.703Z,12.53
2023-05-06T06:38:27.692Z,12.62
2023-05-06T06:39:27.656Z,12.59
2023-05-06T06:40:27.760Z,12.65
2023-05-06T06:41:27.608Z,12.68
2023-05-06T06:42:27.586Z,12.70
2023-05-06T06:43:27.558Z,12.65
2023-05-06T06:44:27.538Z,12.67
2023-05-06T06:45:27.584Z,12.83
2023-05-06T06:46:27.494Z,12.83
2023-05-06T06:47:27.491Z,12.68
2023-05-06T06:48:27.449Z,12.77
2023-05-06T06:49:27.439Z,12.78
2023-05-06T06:50:27.409Z,12.77
2023-05-06T06:51:27.382Z,12.74
2023-05-06T06:52:27.359Z,12.82
2023-05-06T06:53:27.326Z,12.87
2023-05-06T06:54:27.307Z,12.86
2023-05-06T06:55:27.293Z,12.86
2023-05-06T06:56:27.379Z,12.78
2023-05-06T06:57:27.247Z,12.79
2023-05-06T06:58:27.229Z,12.83
2023-05-06T06:59:27.195Z,12.83
2023-05-06T07:00:27.175Z,12.79
2023-05-06T07:01:27.221Z,12.82
2023-05-06T07:02:27.180Z,12.87
2023-05-06T07:03:27.098Z,12.97
2023-05-06T07:04:27.126Z,12.93
2023-05-06T07:05:27.059Z,13.04
2023-05-06T07:06:27.037Z,13.05
2023-05-06T07:07:27.020Z,13.00
2023-05-06T07:08:26.990Z,13.10
2023-05-06T07:09:26.994Z,13.03
2023-05-06T07:10:27.106Z,13.04
2023-05-06T07:11:26.919Z,13.15
2023-05-06T07:12:26.984Z,13.04
2023-05-06T07:13:26.872Z,13.11
2023-05-06T07:14:26.850Z,13.17
2023-05-06T07:15:26.829Z,13.12
2023-05-06T07:16:26.834Z,13.17
2023-05-06T07:17:26.814Z,13.17
2023-05-06T07:18:26.759Z,13.15
2023-05-06T07:19:26.736Z,13.23
2023-05-06T07:20:26.707Z,13.28
2023-05-06T07:21:26.685Z,13.28
2023-05-06T07:22:26.668Z,13.23
2023-05-06T07:23:26.672Z,13.26
2023-05-06T07:24:26.620Z,13.30
2023-05-06T07:25:26.591Z,13.20
2023-05-06T07:26:26.571Z,13.29
2023-05-06T07:27:26.550Z,13.30
2023-05-06T07:28:26.556Z,13.32
2023-05-06T07:29:26.506Z,13.36
2023-05-06T07:30:26.551Z,13.39
2023-05-06T07:31:26.477Z,13.41
2023-05-06T07:32:26.458Z,13.55
2023-05-06T07:33:26.423Z,13.57
2023-05-06T07:34:26.393Z,13.60
2023-05-06T07:35:26.390Z,13.60
2023-05-06T07:36:26.345Z,13.55
2023-05-06T07:37:26.319Z,13.59
2023-05-06T07:38:26.299Z,13.60
2023-05-06T07:39:26.282Z,13.62
2023-05-06T07:40:26.266Z,13.70
2023-05-06T07:41:26.240Z,13.62
2023-05-06T07:42:26.240Z,13.66
2023-05-06T07:43:26.181Z,13.63
2023-05-06T07:44:26.390Z,13.70
2023-05-06T07:45:26.147Z,13.70
2023-05-06T07:46:26.297Z,13.85
2023-05-06T07:47:26.155Z,13.87
2023-05-06T07:48:26.146Z,13.70
2023-05-06T07:49:26.050Z,13.84
2023-05-06T07:50:26.029Z,13.81
2023-05-06T07:51:26.000Z,13.82
2023-05-06T07:52:25.997Z,13.78
2023-05-06T07:53:25.957Z,13.97
2023-05-06T07:54:25.938Z,13.91
2023-05-06T07:55:25.912Z,14.00
2023-05-06T07:56:25.908Z,13.97
2023-05-06T07:57:25.869Z,14.06
2023-05-06T07:58:25.846Z,14.06
2023-05-06T07:59:25.835Z,14.18
2023-05-06T08:00:25.902Z,14.10
2023-05-06T08:01:25.780Z,14.21
2023-05-06T08:02:25.935Z,14.21
2023-05-06T08:03:25.884Z,14.22
2023-05-06T08:04:25.752Z,14.25
2023-05-06T08:05:25.687Z,14.28
2023-05-06T08:06:25.667Z,14.29
2023-05-06T08:07:25.643Z,14.33
2023-05-06T08:08:25.623Z,14.21
2023-05-06T08:09:25.599Z,14.24
2023-05-06T08:10:25.582Z,14.29
2023-05-06T08:11:25.581Z,14.33
2023-05-06T08:12:25.538Z,14.35
2023-05-06T08:13:25.535Z,14.42
2023-05-06T08:14:25.490Z,14.45
2023-05-06T08:15:25.467Z,14.52
2023-05-06T08:16:25.814Z,14.50
2023-05-06T08:17:25.437Z,14.51
2023-05-06T08:18:25.483Z,14.68
2023-05-06T08:19:25.383Z,14.55
2023-05-06T08:20:25.365Z,14.80
2023-05-06T08:21:25.331Z,14.70
2023-05-06T08:22:25.374Z,14.70
2023-05-06T08:23:25.292Z,14.75
2023-05-06T08:24:25.272Z,14.61
2023-05-06T08:25:25.249Z,14.77
2023-05-06T08:26:25.229Z,14.60
2023-05-06T08:27:25.202Z,14.62
2023-05-06T08:28:25.482Z,14.70
2023-05-06T08:29:25.153Z,14.89
2023-05-06T08:30:25.135Z,14.96
2023-05-06T08:31:25.164Z,15.03
2023-05-06T08:32:25.291Z,15.03
2023-05-06T08:33:25.088Z,15.14
2023-05-06T08:34:25.058Z,15.11
2023-05-06T08:35:25.025Z,15.03
2023-05-06T08:36:25.006Z,15.06
2023-05-06T08:37:24.990Z,14.98
2023-05-06T08:38:24.964Z,15.13
2023-05-06T08:39:24.938Z,15.14
2023-05-06T08:40:24.919Z,15.14
2023-05-06T08:41:24.893Z,15.16
2023-05-06T08:42:24.871Z,15.23
2023-05-06T08:43:24.849Z,15.28
2023-05-06T08:44:24.838Z,15.28
2023-05-06T08:45:25.518Z,15.41
2023-05-06T08:46:24.993Z,15.57
2023-05-06T08:47:24.780Z,15.59
2023-05-06T08:48:24.831Z,15.44
2023-05-06T08:49:24.720Z,15.46
2023-05-06T08:50:24.719Z,15.51
2023-05-06T08:51:26.064Z,15.47
2023-05-06T08:52:24.651Z,15.47
2023-05-06T08:53:24.624Z,15.47
2023-05-06T08:54:24.613Z,15.60
2023-05-06T08:55:24.586Z,15.68
2023-05-06T08:56:24.567Z,15.76
2023-05-06T08:57:24.563Z,15.75
2023-05-06T08:58:24.538Z,15.68
2023-05-06T08:59:24.493Z,15.75
2023-05-06T09:00:24.476Z,15.69
2023-05-06T09:01:24.595Z,15.69
2023-05-06T09:02:24.489Z,15.76
2023-05-06T09:03:24.516Z,15.80
2023-05-06T09:04:24.414Z,15.82
2023-05-06T09:05:24.369Z,15.86
2023-05-06T09:06:24.374Z,15.84
2023-05-06T09:07:24.338Z,15.84
2023-05-06T09:08:24.306Z,15.92
2023-05-06T09:09:24.284Z,15.89
2023-05-06T09:10:24.283Z,15.86
2023-05-06T09:11:24.239Z,15.97
2023-05-06T09:12:24.228Z,16.02
2023-05-06T09:13:24.200Z,16.02
2023-05-06T09:14:24.185Z,15.89
2023-05-06T09:15:24.154Z,15.82
2023-05-06T09:16:24.159Z,15.84
2023-05-06T09:17:24.487Z,15.83
2023-05-06T09:18:24.094Z,15.93
2023-05-06T09:19:24.071Z,15.97
2023-05-06T09:20:24.143Z,16.00
2023-05-06T09:21:24.024Z,16.04
2023-05-06T09:22:24.009Z,16.08
2023-05-06T09:23:23.989Z,16.07
2023-05-06T09:24:23.965Z,16.11
2023-05-06T09:25:23.944Z,16.21
2023-05-06T09:26:23.930Z,16.31
2023-05-06T09:27:23.898Z,16.25
2023-05-06T09:28:23.887Z,16.24
2023-05-06T09:29:23.864Z,16.38
2023-05-06T09:30:23.850Z,16.43
2023-05-06T09:31:23.884Z,16.38
2023-05-06T09:32:23.820Z,16.43
2023-05-06T09:33:23.776Z,16.41
2023-05-06T09:34:23.749Z,16.48
2023-05-06T09:35:23.738Z,16.42
2023-05-06T09:36:23.958Z,16.58
2023-05-06T09:37:23.687Z,16.68
2023-05-06T09:38:23.665Z,16.71
2023-05-06T09:39:23.649Z,16.75
2023-05-06T09:40:23.624Z,16.91
2023-05-06T09:41:23.619Z,16.94
2023-05-06T09:42:23.584Z,17.06
2023-05-06T09:43:23.562Z,17.21
2023-05-06T09:44:23.548Z,17.18
2023-05-06T09:45:23.519Z,17.28
2023-05-06T09:46:23.543Z,17.18
2023-05-06T09:47:23.517Z,17.18
2023-05-06T09:48:23.462Z,17.34
2023-05-06T09:49:23.436Z,17.19
2023-05-06T09:50:23.422Z,17.22
2023-05-06T09:51:23.406Z,17.11
2023-05-06T09:52:23.478Z,16.98
2023-05-06T09:53:23.343Z,16.97
2023-05-06T09:54:23.333Z,16.94
2023-05-06T09:55:23.311Z,17.03
2023-05-06T09:56:23.291Z,16.91
2023-05-06T09:57:23.275Z,16.94
2023-05-06T09:58:23.250Z,16.82
2023-05-06T09:59:23.225Z,16.83
2023-05-06T10:00:23.212Z,16.88
2023-05-06T10:01:35.290Z,16.98
2023-05-06T10:02:23.554Z,17.11
2023-05-06T10:03:23.259Z,17.12
2023-05-06T10:04:25.400Z,17.23
2023-05-06T10:05:23.176Z,17.38
2023-05-06T10:06:23.082Z,17.33
2023-05-06T10:07:23.067Z,17.46
2023-05-06T10:08:23.146Z,17.37
2023-05-06T10:09:23.020Z,17.43
2023-05-06T10:10:25.410Z,17.46
2023-05-06T10:11:22.979Z,17.43
2023-05-06T10:12:22.955Z,17.43
2023-05-06T10:13:23.038Z,17.55
2023-05-06T10:14:22.913Z,17.64
2023-05-06T10:15:22.893Z,17.71
2023-05-06T10:16:22.936Z,17.75
2023-05-06T10:17:22.859Z,17.74
2023-05-06T10:18:22.838Z,17.72
2023-05-06T10:19:22.817Z,17.71
2023-05-06T10:20:22.796Z,17.48
2023-05-06T10:21:22.773Z,17.38
2023-05-06T10:22:22.763Z,17.52
2023-05-06T10:23:22.730Z,17.66
2023-05-06T10:24:22.728Z,17.70
2023-05-06T10:25:22.692Z,17.66
2023-05-06T10:26:22.667Z,17.70
2023-05-06T10:27:22.653Z,17.72
2023-05-06T10:28:30.489Z,17.84
2023-05-06T10:29:22.611Z,17.89
2023-05-06T10:30:22.575Z,17.99
2023-05-06T10:31:22.605Z,18.03
2023-05-06T10:32:22.562Z,17.97
2023-05-06T10:33:22.523Z,18.08
2023-05-06T10:34:22.497Z,18.12
2023-05-06T10:35:22.478Z,18.17
2023-05-06T10:36:22.480Z,18.15
2023-05-06T10:37:22.441Z,18.07
2023-05-06T10:38:22.414Z,18.03
2023-05-06T10:39:22.403Z,18.10
2023-05-06T10:40:22.465Z,18.10
2023-05-06T10:41:22.368Z,17.99
2023-05-06T10:42:22.332Z,18.15
2023-05-06T10:43:22.310Z,18.14
2023-05-06T10:44:22.294Z,18.20
2023-05-06T10:45:22.291Z,18.25
2023-05-06T10:46:22.256Z,18.26
2023-05-06T10:47:22.324Z,18.39
2023-05-06T10:48:22.213Z,18.42
2023-05-06T10:49:22.189Z,18.37
2023-05-06T10:50:22.191Z,18.27
2023-05-06T10:51:22.151Z,18.37
2023-05-06T10:52:22.127Z,18.25
2023-05-06T10:53:22.111Z,18.23
2023-05-06T10:54:22.085Z,18.20
2023-05-06T10:55:22.069Z,18.32
2023-05-06T10:56:22.063Z,18.41
2023-05-06T10:57:22.030Z,18.55
2023-05-06T10:58:22.006Z,18.58
2023-05-06T10:59:22.025Z,18.54
2023-05-06T11:00:21.963Z,18.60
2023-05-06T11:01:21.963Z,18.70
2023-05-06T11:02:21.988Z,18.76
2023-05-06T11:03:22.101Z,18.76
2023-05-06T11:04:21.898Z,18.81
2023-05-06T11:05:21.871Z,18.90
2023-05-06T11:06:21.847Z,18.85
2023-05-06T11:07:21.841Z,18.91
2023-05-06T11:08:21.828Z,18.94
2023-05-06T11:09:21.816Z,18.90
2023-05-06T11:10:21.769Z,18.85
2023-05-06T11:11:21.751Z,18.98
2023-05-06T11:12:21.741Z,19.11
2023-05-06T11:13:21.833Z,19.18
2023-05-06T11:14:21.688Z,19.25
2023-05-06T11:15:21.667Z,19.23
2023-05-06T11:16:21.686Z,19.32
2023-05-06T11:17:21.676Z,19.40
2023-05-06T11:18:21.608Z,19.36
2023-05-06T11:19:21.591Z,19.33
2023-05-06T11:20:21.572Z,19.28
2023-05-06T11:21:21.551Z,19.28
2023-05-06T11:22:21.526Z,19.26
2023-05-06T11:23:21.517Z,19.25
2023-05-06T11:24:21.485Z,19.21
2023-05-06T11:25:21.468Z,19.22
2023-05-06T11:26:21.447Z,19.28
2023-05-06T11:27:21.431Z,19.11
2023-05-06T11:28:21.510Z,19.04
2023-05-06T11:29:21.388Z,19.13
2023-05-06T11:30:21.365Z,19.25
2023-05-06T11:31:21.418Z,19.21
2023-05-06T11:32:21.368Z,19.18
2023-05-06T11:33:21.313Z,19.21
2023-05-06T11:34:21.290Z,19.28
2023-05-06T11:35:21.273Z,19.31
2023-05-06T11:36:21.300Z,19.29
2023-05-06T11:37:21.268Z,19.19
2023-05-06T11:38:21.209Z,19.29
2023-05-06T11:39:21.225Z,19.36
2023-05-06T11:40:21.169Z,19.36
2023-05-06T11:41:21.151Z,19.37
2023-05-06T11:42:21.129Z,19.26
2023-05-06T11:43:21.114Z,19.16
2023-05-06T11:44:21.111Z,19.07
2023-05-06T11:45:21.069Z,19.22
2023-05-06T11:46:21.225Z,19.28
2023-05-06T11:47:21.040Z,19.31
2023-05-06T11:48:21.007Z,19.44
2023-05-06T11:49:21.019Z,19.39
2023-05-06T11:50:20.970Z,19.43
2023-05-06T11:51:20.952Z,19.59
2023-05-06T11:52:20.936Z,19.61
2023-05-06T11:53:20.914Z,19.73
2023-05-06T11:54:20.887Z,19.77
2023-05-06T11:55:20.880Z,19.95
2023-05-06T11:56:20.848Z,19.94
2023-05-06T11:57:20.834Z,20.06
2023-05-06T11:58:20.810Z,20.01
2023-05-06T11:59:20.798Z,20.18
2023-05-06T12:00:20.864Z,20.13
2023-05-06T12:01:20.760Z,20.20
2023-05-06T12:02:20.836Z,20.24
2023-05-06T12:03:20.923Z,20.24
2023-05-06T12:04:20.715Z,20.26
2023-05-06T12:05:20.669Z,20.38
2023-05-06T12:06:21.694Z,20.31
2023-05-06T12:07:20.631Z,20.32
2023-05-06T12:08:27.328Z,20.28
2023-05-06T12:09:20.589Z,20.14
2023-05-06T12:10:20.566Z,20.14
2023-05-06T12:11:20.557Z,20.13
2023-05-06T12:12:20.537Z,20.14
2023-05-06T12:13:20.554Z,20.17
2023-05-06T12:14:20.493Z,19.95
2023-05-06T12:15:20.476Z,19.91
2023-05-06T12:16:20.571Z,19.81
2023-05-06T12:17:20.455Z,19.83
2023-05-06T12:18:20.411Z,19.80
2023-05-06T12:19:20.399Z,19.76
2023-05-06T12:20:20.382Z,19.74
2023-05-06T12:21:20.357Z,19.65
2023-05-06T12:22:20.367Z,19.77
2023-05-06T12:23:20.315Z,19.80
2023-05-06T12:24:20.350Z,19.74
2023-05-06T12:25:20.277Z,19.83
2023-05-06T12:26:20.253Z,19.86
2023-05-06T12:27:20.242Z,19.78
2023-05-06T12:28:20.237Z,19.81
2023-05-06T12:29:20.202Z,19.69
2023-05-06T12:30:20.189Z,19.63
2023-05-06T12:31:20.274Z,19.61
2023-05-06T12:32:20.229Z,19.56
2023-05-06T12:33:20.136Z,19.63
2023-05-06T12:34:20.101Z,19.61
2023-05-06T12:35:20.088Z,19.55
2023-05-06T12:36:20.061Z,19.61
2023-05-06T12:37:20.044Z,19.55
2023-05-06T12:38:20.019Z,19.58
2023-05-06T12:39:20.006Z,19.58
2023-05-06T12:40:19.980Z,19.63
2023-05-06T12:41:19.962Z,19.69
2023-05-06T12:42:19.949Z,19.81
2023-05-06T12:43:19.925Z,19.87
2023-05-06T12:44:19.904Z,19.98
2023-05-06T12:45:19.891Z,19.91
2023-05-06T12:46:19.980Z,20.10
2023-05-06T12:47:19.838Z,20.13
2023-05-06T12:48:19.844Z,20.28
2023-05-06T12:49:19.810Z,20.26
2023-05-06T12:50:19.782Z,20.31
2023-05-06T12:51:19.768Z,20.36
2023-05-06T12:52:19.752Z,20.32
2023-05-06T12:53:19.724Z,20.42